Benton, CA (93512)

10:38 PM PST on December 26, 2014 (GMT -0800)
RAWS DEXTER CA US | Change Station
CLOSE
Current Station
Personal Weather Station
Location: Benton, CA
Elevation: 7980 ft
Nearby Weather Stations

Elev 7980 ft 37.84 °N, 118.77 °W | Updated 45 minutes ago

Clear
Clear
11 °F
Feels Like 1 °F
N
6
Wind Variable Wind from North
Gusts 12.0 mph

Today
High -- | Low -- °F
--% Chance of Precip.
Yesterday
High -- | Low -- °F
Precip. -- in
7:08 AM 4:42 PM
Waxing Crescent, 33% visible
Pressure 30.21 in
Visibility 10.0 miles
Clouds Clear
Windchill 1 °F
Dew Point -2 °F
Humidity 55%
Rainfall 0.04 in
Snow Depth Not available.
UV 0 out of 12
Pollen 2.60 out of 12
Air Quality Not available.
Flu Activity Not available.
METAR KMMH 270615Z AUTO 31003KT 10SM CLR M11/M15 A3021 RMK AO1

More Conditions Fewer Conditions

Pressure 30.21 in
Visibility 10.0 miles
Clouds Clear
Windchill 1 °F
Dew Point -2 °F
Humidity 55%
Rainfall 0.04 in
Snow Depth Not available.
UV 0 out of 12
Pollen 2.60 out of 12
Air Quality Not available.
Flu Activity Not available.
METAR KMMH 270615Z AUTO 31003KT 10SM CLR M11/M15 A3021 RMK AO1

More Conditions Fewer Conditions

10-Day Weather Forecast

Almanac

Astronomy

Dec. 26, 2014 Rise Set
Actual Time
Civil Twilight
Nautical Twilight
Astronomical Twilight
Moon
Length of Visible Light
Length of Day
Tomorrow will be .
, % of the Moon is Illuminated

Today's Extremes

State Highs State Lows

Community

WunderPhotos

Upload Photos

1,780,859 photos uploaded!

WunderBlogs® & News

Nearby

Air Quality

  Air Quality AQ Index Pollutant
Not available.

Snow Depth

Station Depth Elevation

Earthquake Activity

City Distance Mag. Time & Date
Minimum magnitude displayed is 2.5.

Coastal Water Temperatures

Place Temperature

Nearby Weather Stations